Pagina principală
METAR-TAF:

METAR-TAF

Aeroporturi :

Natchez-Adams County Airport (Hardy-Anders Field)

Natchez, Mississippi, Statele Unite ale Americii

Latitudine: 31-37N, longitudine: 091-18W, elevație: 83 m

Observații meteo curente

Raportul a fost făcut în urmă cu 30 de minute, la 21:56 UTC
Vânt 4 kt de la Est/Nord-est
Temperatură 33°C
Umiditate 49%
Presiune 1016 hPa
Vizibilitate: 8.0 km
Cer senin
pâclă

METAR: KHEZ 222156Z AUTO 06004KT 5SM HZ CLR 33/21 A3000 RMK AO2 SLP156 T03280206

Ora: 17:26 (22:26 UTC)

Prognoză

Raportul a fost făcut în urmă cu 5 ore și 6 de minute, la 17:20 UTC
Prognoză valabilă de la 22 ora 18 UTC la 23 ora 18 UTC
Vânt kt de la Nord
Vizibilitate: 10 km
Nori puțini la o înălțime de 25000 picior

TAF: KHEZ 221720Z 2218/2318 00000KT P6SM FEW250

Observații și prognoze meteo pentru peste 4.000 de aeroporturi (rapoarte METAR și TAF).

Stațiile disponibile sunt reprezentate pe hartă prin puncte galbene și roșii.

Țineți indicatorul mouse-ului pe punctul dorit pentru a vedea denumirea stației.

Apoi, faceți clic pentru a vedea observațiile și prognozele meteorologice.

Pentru a schimba harta: Pentru mărire, faceți clic pe butoanele verzi cu cruce neagră; pentru micșorare, pe butonul verde cu o liniuță; pentru hărți învecinate, pe săgețile verzi.


METAR-TAF: